Time;durP1;ratioP1;P1;durP2;ratioP2;P2;SDS_P1;SDS_P2;PMS_P1;PMS_P2;Temp;Humidity;BMP_temperature;BMP_pressure;BME280_temperature;BME280_humidity;BME280_pressure;Samples;Min_cycle;Max_cycle;Signal;HPM_P1;HPM_P2
2023/07/17 00:02:07;;;;;;;5.70;1.65;;;;;;;;;;5025872;28;20097;-78
2023/07/17 00:04:34;;;;;;;5.60;1.80;;;;;;;;;;5024303;28;20045;-78
2023/07/17 00:07:00;;;;;;;4.10;1.60;;;;;;;;;;5024534;28;20049;-78
2023/07/17 00:09:25;;;;;;;3.65;1.52;;;;;;;;;;5024742;28;20045;-78
2023/07/17 00:11:51;;;;;;;6.55;2.00;;;;;;;;;;5024714;28;20052;-78
2023/07/17 00:14:17;;;;;;;3.30;1.35;;;;;;;;;;5025362;28;20091;-78
2023/07/17 00:16:57;;;;;;;3.10;1.50;;;;;;;;;;5024410;28;20036;-78
2023/07/17 00:20:14;;;;;;;3.25;1.48;;;;;;;;;;5024354;28;20091;-78
2023/07/17 00:25:48;;;;;;;3.83;1.60;;;;;;;;;;4962746;28;20045;-78
2023/07/17 00:28:14;;;;;;;3.40;1.65;;;;;;;;;;5027508;28;20535;-78
2023/07/17 00:30:40;;;;;;;3.97;1.70;;;;;;;;;;5028189;28;20032;-78
2023/07/17 00:33:06;;;;;;;3.17;1.63;;;;;;;;;;5028478;28;20040;-78
2023/07/17 00:35:32;;;;;;;3.30;1.67;;;;;;;;;;5028082;28;20041;-78
2023/07/17 00:37:58;;;;;;;6.55;1.80;;;;;;;;;;5029086;28;20649;-78
2023/07/17 00:40:23;;;;;;;5.80;1.80;;;;;;;;;;5028432;28;20691;-78
2023/07/17 00:42:49;;;;;;;6.22;1.80;;;;;;;;;;5030923;28;20534;-78
2023/07/17 00:45:18;;;;;;;5.93;1.85;;;;;;;;;;5047873;28;20060;-78
2023/07/17 00:47:44;;;;;;;3.70;1.70;;;;;;;;;;5047966;28;20060;-78
2023/07/17 00:50:10;;;;;;;4.45;1.65;;;;;;;;;;5048140;28;20414;-78
2023/07/17 00:52:38;;;;;;;7.10;2.00;;;;;;;;;;5047716;28;20434;-78
2023/07/17 00:55:05;;;;;;;4.43;1.85;;;;;;;;;;5047756;28;20044;-78
2023/07/17 01:11:33;;;;;;;4.70;1.55;;;;;;;;;;4875840;29;20123;-78
2023/07/17 01:14:01;;;;;;;6.15;1.60;;;;;;;;;;4912345;29;20122;-78
2023/07/17 01:16:27;;;;;;;5.25;2.10;;;;;;;;;;4982146;28;20049;-78
2023/07/17 01:19:04;;;;;;;5.57;1.90;;;;;;;;;;5007868;28;20038;-78
2023/07/17 01:21:36;;;;;;;3.38;1.85;;;;;;;;;;5006533;28;20266;-78
2023/07/17 01:24:02;;;;;;;3.55;1.75;;;;;;;;;;5006684;28;20087;-78
2023/07/17 01:26:30;;;;;;;3.00;1.65;;;;;;;;;;5006717;28;20033;-78
2023/07/17 01:28:59;;;;;;;4.60;1.90;;;;;;;;;;5008029;28;20072;-78
2023/07/17 01:31:28;;;;;;;5.43;1.70;;;;;;;;;;5016381;28;20065;-78
2023/07/17 01:33:56;;;;;;;4.97;1.80;;;;;;;;;;5026876;28;20048;-78
2023/07/17 01:36:26;;;;;;;3.85;1.85;;;;;;;;;;5026394;28;20060;-78
2023/07/17 01:38:54;;;;;;;5.80;2.08;;;;;;;;;;5026126;28;20033;-78
2023/07/17 01:41:24;;;;;;;2.33;1.73;;;;;;;;;;5023032;28;20057;-78
2023/07/17 01:43:50;;;;;;;3.83;1.60;;;;;;;;;;5020868;28;20017;-78
2023/07/17 01:46:18;;;;;;;3.85;1.52;;;;;;;;;;5028937;28;20033;-78
2023/07/17 01:49:41;;;;;;;4.00;1.95;;;;;;;;;;5045535;28;20045;-78
2023/07/17 01:52:10;;;;;;;5.00;2.00;;;;;;;;;;5019514;28;20475;-78
2023/07/17 01:54:39;;;;;;;7.85;2.50;;;;;;;;;;5006914;28;20069;-78
2023/07/17 01:57:08;;;;;;;4.75;2.20;;;;;;;;;;5004910;28;20519;-78
2023/07/17 01:59:34;;;;;;;4.07;2.10;;;;;;;;;;5006277;28;20798;-78
2023/07/17 02:02:03;;;;;;;3.60;2.20;;;;;;;;;;5007548;28;20100;-78
2023/07/17 02:04:31;;;;;;;5.53;2.28;;;;;;;;;;5006707;28;20686;-78
2023/07/17 02:06:57;;;;;;;8.43;2.92;;;;;;;;;;5007855;28;20462;-78
2023/07/17 02:09:23;;;;;;;4.75;2.20;;;;;;;;;;5026380;28;20119;-78
2023/07/17 02:11:52;;;;;;;5.63;2.47;;;;;;;;;;5027072;28;20061;-78
2023/07/17 02:14:18;;;;;;;6.38;2.42;;;;;;;;;;5024695;28;20318;-79
2023/07/17 02:16:58;;;;;;;5.50;2.00;;;;;;;;;;5025866;28;20037;-78
2023/07/17 02:19:26;;;;;;;4.15;1.80;;;;;;;;;;5025751;28;20091;-79
2023/07/17 02:21:52;;;;;;;4.10;2.15;;;;;;;;;;5026100;28;20037;-78
2023/07/17 02:24:21;;;;;;;3.10;1.70;;;;;;;;;;5025146;28;20040;-78
2023/07/17 02:26:49;;;;;;;5.55;1.98;;;;;;;;;;5025148;28;20033;-78
2023/07/17 02:29:20;;;;;;;4.53;2.13;;;;;;;;;;5026992;28;20037;-78
2023/07/17 02:38:01;;;;;;;3.97;2.00;;;;;;;;;;5024823;28;20051;-78
2023/07/17 02:40:27;;;;;;;3.95;2.15;;;;;;;;;;5014312;28;20018;-78
2023/07/17 02:43:05;;;;;;;4.57;2.33;;;;;;;;;;5013256;28;20146;-78
2023/07/17 02:45:31;;;;;;;8.27;2.50;;;;;;;;;;5019813;28;20137;-79
2023/07/17 02:47:59;;;;;;;3.45;2.08;;;;;;;;;;5026074;28;20036;-78
2023/07/17 02:50:25;;;;;;;4.45;2.47;;;;;;;;;;5004480;28;20050;-78
2023/07/17 02:52:51;;;;;;;4.35;2.05;;;;;;;;;;5006757;28;20064;-78
2023/07/17 02:55:17;;;;;;;6.38;2.60;;;;;;;;;;5008054;28;20088;-78
2023/07/17 02:57:46;;;;;;;5.45;2.38;;;;;;;;;;5026493;28;20029;-78
2023/07/17 03:00:14;;;;;;;5.13;2.50;;;;;;;;;;5024377;28;20703;-78
2023/07/17 03:02:45;;;;;;;7.30;2.67;;;;;;;;;;5025974;28;20037;-78
2023/07/17 03:05:12;;;;;;;5.60;2.40;;;;;;;;;;5025639;28;20018;-78
2023/07/17 03:07:40;;;;;;;7.63;2.60;;;;;;;;;;5024924;28;20049;-78
2023/07/17 03:10:09;;;;;;;8.65;2.70;;;;;;;;;;5024533;28;20037;-78
2023/07/17 03:12:38;;;;;;;5.10;2.30;;;;;;;;;;5020108;28;20455;-78
2023/07/17 03:15:09;;;;;;;7.15;2.58;;;;;;;;;;5010823;28;20029;-78
2023/07/17 03:18:30;;;;;;;11.75;3.45;;;;;;;;;;5018149;28;20018;-78
2023/07/17 03:21:40;;;;;;;6.13;2.92;;;;;;;;;;5042288;28;20554;-78
2023/07/17 03:24:06;;;;;;;6.82;3.17;;;;;;;;;;5002502;28;20592;-78
2023/07/17 03:26:35;;;;;;;6.90;2.78;;;;;;;;;;5025007;28;20022;-78
2023/07/17 03:29:01;;;;;;;5.85;2.95;;;;;;;;;;5025353;28;20462;-78
2023/07/17 03:31:29;;;;;;;9.45;2.88;;;;;;;;;;5023986;28;20048;-78
2023/07/17 03:33:58;;;;;;;5.65;2.78;;;;;;;;;;5025225;28;20030;-78
2023/07/17 03:36:30;;;;;;;7.68;2.88;;;;;;;;;;5024290;28;20037;-78
2023/07/17 03:39:01;;;;;;;6.38;2.83;;;;;;;;;;5024231;28;20053;-78
2023/07/17 03:42:26;;;;;;;6.55;2.80;;;;;;;;;;5025178;28;20038;-78
2023/07/17 03:44:30;;;;;;;8.48;3.33;;;;;;;;;;4996271;28;20034;-78
2023/07/17 03:46:59;;;;;;;4.97;2.58;;;;;;;;;;5016966;28;20045;-78
2023/07/17 03:49:25;;;;;;;6.47;3.22;;;;;;;;;;5020504;28;20128;-78
2023/07/17 03:51:54;;;;;;;8.20;2.85;;;;;;;;;;5024744;28;20041;-78
2023/07/17 03:54:35;;;;;;;7.60;3.05;;;;;;;;;;5022991;28;20057;-78
2023/07/17 03:57:04;;;;;;;14.32;3.78;;;;;;;;;;5025274;28;20040;-78
2023/07/17 04:06:43;;;;;;;6.78;3.42;;;;;;;;;;4951562;28;20094;-78
2023/07/17 04:09:10;;;;;;;9.77;3.30;;;;;;;;;;4945798;29;20127;-78
2023/07/17 04:11:36;;;;;;;9.27;3.70;;;;;;;;;;4947895;28;20027;-78
2023/07/17 04:14:05;;;;;;;8.85;3.92;;;;;;;;;;5025588;28;20044;-78
2023/07/17 04:16:37;;;;;;;7.63;3.40;;;;;;;;;;5028534;28;20785;-78
2023/07/17 04:19:03;;;;;;;7.63;3.33;;;;;;;;;;5027301;28;20069;-78
2023/07/17 04:21:31;;;;;;;7.70;3.15;;;;;;;;;;5028081;28;20041;-78
2023/07/17 04:24:00;;;;;;;7.10;3.60;;;;;;;;;;5028942;28;20033;-78
2023/07/17 04:26:26;;;;;;;10.48;3.53;;;;;;;;;;5028456;28;20032;-78
2023/07/17 04:28:52;;;;;;;12.48;3.70;;;;;;;;;;5029015;28;20056;-78
2023/07/17 04:31:22;;;;;;;10.60;3.50;;;;;;;;;;5028549;28;20040;-78
2023/07/17 04:33:48;;;;;;;9.98;3.50;;;;;;;;;;5027470;28;20033;-78
2023/07/17 04:36:14;;;;;;;9.65;3.97;;;;;;;;;;5027567;28;20033;-78
2023/07/17 04:38:42;;;;;;;7.30;3.38;;;;;;;;;;5028619;28;20399;-78
2023/07/17 04:41:11;;;;;;;6.70;3.75;;;;;;;;;;5028600;28;20096;-78
2023/07/17 04:44:22;;;;;;;6.75;3.03;;;;;;;;;;5025919;28;20096;-78
2023/07/17 04:47:08;;;;;;;8.70;3.50;;;;;;;;;;5021734;28;20495;-78
2023/07/17 04:49:34;;;;;;;7.20;3.20;;;;;;;;;;5008245;28;20516;-78
2023/07/17 04:52:00;;;;;;;8.75;3.25;;;;;;;;;;5018783;28;20037;-78
2023/07/17 04:54:28;;;;;;;9.98;3.53;;;;;;;;;;5023098;28;20044;-78
2023/07/17 04:56:57;;;;;;;7.28;3.35;;;;;;;;;;5025814;28;20055;-78
2023/07/17 04:59:28;;;;;;;7.90;3.58;;;;;;;;;;5026066;28;20023;-78
2023/07/17 05:01:59;;;;;;;9.38;3.33;;;;;;;;;;5028329;28;20096;-78
2023/07/17 05:04:28;;;;;;;10.25;3.55;;;;;;;;;;5026030;28;20045;-78
2023/07/17 05:06:58;;;;;;;8.77;4.00;;;;;;;;;;5020991;28;20050;-78
2023/07/17 05:09:23;;;;;;;10.07;3.65;;;;;;;;;;5024056;28;20135;-78
2023/07/17 05:11:50;;;;;;;8.18;3.33;;;;;;;;;;5034079;28;20565;-78
2023/07/17 05:14:16;;;;;;;9.85;4.35;;;;;;;;;;5023281;28;20030;-79
2023/07/17 05:19:34;;;;;;;12.65;3.42;;;;;;;;;;5019435;28;20782;-78
2023/07/17 05:22:00;;;;;;;10.30;3.90;;;;;;;;;;5027025;28;20060;-78
2023/07/17 05:25:02;;;;;;;11.07;4.10;;;;;;;;;;5026510;28;20092;-78
2023/07/17 05:28:24;;;;;;;;;;;;;;;;;;;;;
2023/07/17 05:34:11;;;;;;;10.10;3.58;;;;;;;;;;5004916;28;20153;-78
2023/07/17 05:36:43;;;;;;;8.95;3.78;;;;;;;;;;5005106;28;20514;-78
2023/07/17 05:39:09;;;;;;;10.23;3.55;;;;;;;;;;5013468;28;20045;-78
2023/07/17 05:41:34;;;;;;;11.30;4.00;;;;;;;;;;5026854;28;20069;-78
2023/07/17 05:44:03;;;;;;;15.95;5.20;;;;;;;;;;5027697;28;20063;-78
2023/07/17 05:46:31;;;;;;;11.95;4.13;;;;;;;;;;5026469;28;20051;-78
2023/07/17 05:48:57;;;;;;;7.43;3.55;;;;;;;;;;5026778;28;20107;-78
2023/07/17 05:54:32;;;;;;;7.03;3.47;;;;;;;;;;5022948;28;20160;-78
2023/07/17 05:56:58;;;;;;;11.55;2.95;;;;;;;;;;5027125;28;20021;-78
2023/07/17 05:59:24;;;;;;;8.20;3.40;;;;;;;;;;5025556;28;20021;-78
2023/07/17 06:01:53;;;;;;;10.20;3.35;;;;;;;;;;5027114;28;20052;-78
2023/07/17 06:04:21;;;;;;;11.43;2.97;;;;;;;;;;5026490;28;20112;-78
2023/07/17 06:06:50;;;;;;;6.38;2.90;;;;;;;;;;5026859;28;20036;-78
2023/07/17 06:12:49;;;;;;;10.00;3.35;;;;;;;;;;4900064;29;20127;-78
2023/07/17 06:15:54;;;;;;;9.32;3.70;;;;;;;;;;4912514;29;20083;-78
2023/07/17 06:18:38;;;;;;;12.57;3.55;;;;;;;;;;4957953;28;20051;-78
2023/07/17 06:21:07;;;;;;;8.30;3.15;;;;;;;;;;4962724;28;20468;-78
2023/07/17 06:23:59;;;;;;;12.07;3.65;;;;;;;;;;4998904;28;20044;-78
2023/07/17 06:26:28;;;;;;;9.90;3.70;;;;;;;;;;5018326;28;20493;-78
2023/07/17 06:29:02;;;;;;;7.53;3.55;;;;;;;;;;5025535;28;20029;-78
2023/07/17 06:31:40;;;;;;;8.57;3.63;;;;;;;;;;5026062;28;20057;-78
2023/07/17 06:34:06;;;;;;;9.80;4.10;;;;;;;;;;5025874;28;20041;-78
2023/07/17 06:36:32;;;;;;;8.75;3.95;;;;;;;;;;5026343;28;20422;-78
2023/07/17 06:38:58;;;;;;;8.80;3.65;;;;;;;;;;5025622;28;20175;-78
2023/07/17 06:41:24;;;;;;;14.48;4.45;;;;;;;;;;5026062;28;20427;-78
2023/07/17 06:44:32;;;;;;;10.45;3.63;;;;;;;;;;5026587;28;20036;-78
2023/07/17 06:46:41;;;;;;;11.38;3.72;;;;;;;;;;5021431;28;20048;-79
2023/07/17 06:49:07;;;;;;;9.02;3.42;;;;;;;;;;5021901;28;20537;-78
2023/07/17 06:51:44;;;;;;;10.40;3.78;;;;;;;;;;5022444;28;20042;-79
2023/07/17 06:54:10;;;;;;;12.25;3.55;;;;;;;;;;5023271;28;20030;-79
2023/07/17 06:56:36;;;;;;;12.25;3.72;;;;;;;;;;5024410;28;20036;-78
2023/07/17 06:59:17;;;;;;;;;;;;;;;;;;;;;
2023/07/17 07:01:43;;;;;;;12.05;3.90;;;;;;;;;;5024200;28;20056;-78
2023/07/17 07:04:15;;;;;;;13.57;4.00;;;;;;;;;;4996908;28;20542;-78
2023/07/17 07:06:44;;;;;;;13.48;4.22;;;;;;;;;;5011915;28;20041;-78
2023/07/17 07:09:31;;;;;;;;;;;;;;;;;;;;;
2023/07/17 07:11:58;;;;;;;9.48;3.70;;;;;;;;;;5005107;28;20045;-79
2023/07/17 07:14:23;;;;;;;12.13;4.40;;;;;;;;;;5025760;28;20060;-78
2023/07/17 07:16:49;;;;;;;13.05;4.28;;;;;;;;;;5026375;28;20037;-78
2023/07/17 07:19:15;;;;;;;9.60;3.80;;;;;;;;;;5035440;28;20044;-78
2023/07/17 07:21:41;;;;;;;10.70;4.05;;;;;;;;;;5045465;28;20055;-78
2023/07/17 07:24:10;;;;;;;11.65;4.40;;;;;;;;;;5025102;28;20068;-78
2023/07/17 07:26:37;;;;;;;8.63;3.80;;;;;;;;;;5022308;28;20112;-78
2023/07/17 07:29:10;;;;;;;10.07;3.75;;;;;;;;;;5023713;28;20101;-78
2023/07/17 07:31:36;;;;;;;10.38;4.30;;;;;;;;;;5009784;28;20092;-78
2023/07/17 07:34:05;;;;;;;10.20;4.43;;;;;;;;;;5004407;28;20042;-78
2023/07/17 07:36:34;;;;;;;12.48;4.43;;;;;;;;;;5005705;28;20741;-78
2023/07/17 07:38:59;;;;;;;9.43;3.92;;;;;;;;;;5008811;28;20053;-78
2023/07/17 07:41:28;;;;;;;9.85;4.30;;;;;;;;;;5022332;28;20048;-78
2023/07/17 07:43:59;;;;;;;9.63;4.00;;;;;;;;;;5030924;28;20045;-79
2023/07/17 07:46:33;;;;;;;7.65;3.67;;;;;;;;;;5035406;28;20061;-79
2023/07/17 07:48:58;;;;;;;8.73;4.03;;;;;;;;;;5032887;28;20025;-78
2023/07/17 07:51:24;;;;;;;10.50;4.00;;;;;;;;;;5026524;28;20052;-78
2023/07/17 07:53:53;;;;;;;9.98;3.97;;;;;;;;;;5025795;28;20041;-78
2023/07/17 07:56:25;;;;;;;11.27;3.70;;;;;;;;;;5026572;28;20043;-79
2023/07/17 07:58:50;;;;;;;10.65;3.53;;;;;;;;;;5032123;28;21135;-78
2023/07/17 08:01:17;;;;;;;10.80;4.18;;;;;;;;;;5023248;28;20092;-78
2023/07/17 08:03:46;;;;;;;8.20;3.67;;;;;;;;;;5013108;28;20060;-78
2023/07/17 08:06:14;;;;;;;11.00;3.85;;;;;;;;;;5010200;28;20116;-78
2023/07/17 08:08:40;;;;;;;7.57;3.40;;;;;;;;;;5019659;28;20534;-78
2023/07/17 08:11:07;;;;;;;7.93;3.42;;;;;;;;;;5023129;28;20026;-78
2023/07/17 08:13:33;;;;;;;10.80;3.22;;;;;;;;;;5041125;28;20137;-78
2023/07/17 08:16:02;;;;;;;7.45;3.33;;;;;;;;;;5029282;28;20136;-78
2023/07/17 08:21:17;;;;;;;8.25;3.05;;;;;;;;;;5003482;28;20064;-78
2023/07/17 08:23:46;;;;;;;6.50;3.55;;;;;;;;;;5016901;28;20121;-78
2023/07/17 08:26:12;;;;;;;6.93;2.67;;;;;;;;;;5030089;28;20029;-79
2023/07/17 08:28:38;;;;;;;7.55;2.97;;;;;;;;;;5030486;28;20087;-78
2023/07/17 08:31:07;;;;;;;4.85;2.60;;;;;;;;;;5033217;28;20563;-78
2023/07/17 08:33:47;;;;;;;8.70;3.53;;;;;;;;;;5023577;28;20128;-78
2023/07/17 08:36:12;;;;;;;7.53;3.00;;;;;;;;;;5035378;28;20045;-78
2023/07/17 08:38:38;;;;;;;8.18;2.88;;;;;;;;;;5032006;28;20032;-78
2023/07/17 08:41:08;;;;;;;7.10;3.17;;;;;;;;;;5029438;28;20057;-78
2023/07/17 08:43:36;;;;;;;6.47;2.88;;;;;;;;;;5029343;28;20056;-78
2023/07/17 08:46:05;;;;;;;8.93;3.45;;;;;;;;;;5013566;28;20077;-78
2023/07/17 08:48:43;;;;;;;;;;;;;;;;;;;;;
2023/07/17 08:54:37;;;;;;;10.07;2.65;;;;;;;;;;4987084;28;20041;-78
2023/07/17 08:57:04;;;;;;;7.10;2.88;;;;;;;;;;4975563;28;20042;-78
2023/07/17 08:59:48;;;;;;;8.10;3.40;;;;;;;;;;4999591;28;20099;-78
2023/07/17 09:02:54;;;;;;;5.82;2.97;;;;;;;;;;5027578;28;20017;-78
2023/07/17 09:09:45;;;;;;;7.63;3.03;;;;;;;;;;5032785;28;20055;-78
2023/07/17 09:16:41;;;;;;;5.93;3.30;;;;;;;;;;4996352;28;20049;-78
2023/07/17 09:22:52;;;;;;;6.20;2.65;;;;;;;;;;4938176;29;20152;-78
2023/07/17 09:25:27;;;;;;;5.53;2.45;;;;;;;;;;4952040;28;20043;-79
2023/07/17 09:35:48;;;;;;;7.05;3.03;;;;;;;;;;4854978;29;20060;-77
2023/07/17 09:41:40;;;;;;;7.30;3.17;;;;;;;;;;4793516;29;20537;-77
2023/07/17 09:44:34;;;;;;;;;;;;;;;;;;;;;
2023/07/17 09:47:33;;;;;;;8.18;3.00;;;;;;;;;;4898183;29;20036;-77
2023/07/17 09:50:13;;;;;;;;;;;;;;;;;;;;;
2023/07/17 09:59:04;;;;;;;7.10;3.00;;;;;;;;;;4964932;28;20072;-77
2023/07/17 10:01:33;;;;;;;8.63;3.10;;;;;;;;;;4978429;28;20062;-78
2023/07/17 10:07:44;;;;;;;9.60;3.20;;;;;;;;;;5013116;28;20067;-78
2023/07/17 10:10:50;;;;;;;8.65;3.10;;;;;;;;;;5014558;28;20094;-78
2023/07/17 10:21:32;;;;;;;8.82;3.20;;;;;;;;;;4859542;29;20951;-77
2023/07/17 10:24:02;;;;;;;6.75;2.60;;;;;;;;;;4893830;28;20042;-78
2023/07/17 10:26:29;;;;;;;8.38;3.22;;;;;;;;;;5000664;28;20069;-77
2023/07/17 10:29:12;;;;;;;6.57;2.70;;;;;;;;;;5002639;28;20183;-77
2023/07/17 10:32:33;;;;;;;6.93;2.92;;;;;;;;;;4991330;28;20754;-77
2023/07/17 10:35:40;;;;;;;7.53;2.85;;;;;;;;;;5007317;28;20547;-77
2023/07/17 10:38:41;;;;;;;;;;;;;;;;;;;;;
2023/07/17 10:45:23;;;;;;;5.78;2.55;;;;;;;;;;4866304;29;20057;-77
2023/07/17 10:48:11;;;;;;;9.50;2.70;;;;;;;;;;4878542;29;20043;-77
2023/07/17 10:50:42;;;;;;;5.78;2.67;;;;;;;;;;5003505;28;20507;-78
2023/07/17 10:53:11;;;;;;;7.70;2.85;;;;;;;;;;5025794;28;20059;-77
2023/07/17 10:55:46;;;;;;;9.50;3.10;;;;;;;;;;5021282;28;20053;-77
2023/07/17 11:01:09;;;;;;;10.50;2.80;;;;;;;;;;5022148;28;20047;-82
2023/07/17 11:03:36;;;;;;;9.73;2.70;;;;;;;;;;5023337;28;20045;-80
2023/07/17 11:06:36;;;;;;;7.35;3.00;;;;;;;;;;5018882;28;20410;-81
2023/07/17 11:17:57;;;;;;;7.22;2.83;;;;;;;;;;5028549;28;20044;-83
2023/07/17 11:20:29;;;;;;;5.40;2.78;;;;;;;;;;5019818;28;20046;-77
2023/07/17 11:23:00;;;;;;;5.82;2.47;;;;;;;;;;5013414;28;20052;-77
2023/07/17 11:26:03;;;;;;;;;;;;;;;;;;;;;
2023/07/17 11:29:14;;;;;;;4.82;2.60;;;;;;;;;;5025424;28;20041;-77
2023/07/17 11:31:45;;;;;;;5.43;2.70;;;;;;;;;;4921776;28;20066;-77
2023/07/17 11:34:14;;;;;;;5.40;2.63;;;;;;;;;;5013272;28;20030;-77
2023/07/17 11:36:56;;;;;;;7.10;3.13;;;;;;;;;;5009178;28;20021;-77
2023/07/17 11:39:33;;;;;;;9.35;2.92;;;;;;;;;;5024694;28;20084;-77
2023/07/17 11:42:09;;;;;;;8.45;3.22;;;;;;;;;;5020153;28;20076;-78
2023/07/17 11:44:56;;;;;;;5.10;2.70;;;;;;;;;;5024491;28;20221;-78
2023/07/17 11:47:29;;;;;;;9.02;2.60;;;;;;;;;;5016054;28;20445;-77
2023/07/17 11:50:10;;;;;;;;;;;;;;;;;;;;;
2023/07/17 11:52:46;;;;;;;7.05;2.80;;;;;;;;;;4992986;28;19925;-77
2023/07/17 11:58:50;;;;;;;7.60;3.05;;;;;;;;;;5018111;28;20605;-77
2023/07/17 12:01:25;;;;;;;5.95;3.30;;;;;;;;;;5017941;28;20037;-78
2023/07/17 12:03:56;;;;;;;6.30;2.70;;;;;;;;;;5019366;28;20026;-78
2023/07/17 12:06:25;;;;;;;5.55;2.70;;;;;;;;;;5013354;28;20435;-78
2023/07/17 12:08:55;;;;;;;3.88;2.63;;;;;;;;;;5022835;28;20077;-77
2023/07/17 12:15:26;;;;;;;6.35;2.60;;;;;;;;;;4954893;28;20043;-78
2023/07/17 12:17:44;;;;;;;4.55;2.45;;;;;;;;;;4929632;28;20089;-78
2023/07/17 12:20:59;;;;;;;3.60;2.25;;;;;;;;;;5017432;28;20139;-78
2023/07/17 12:24:10;;;;;;;4.07;2.40;;;;;;;;;;5018709;28;20469;-78
2023/07/17 12:29:46;;;;;;;5.22;2.47;;;;;;;;;;5006656;28;20110;-78
2023/07/17 12:32:12;;;;;;;6.93;3.05;;;;;;;;;;5031339;28;20109;-78
2023/07/17 12:38:03;;;;;;;4.05;2.63;;;;;;;;;;5024204;28;20055;-78
2023/07/17 12:40:32;;;;;;;6.40;2.70;;;;;;;;;;5003671;28;20077;-78
2023/07/17 12:43:32;;;;;;;4.43;2.42;;;;;;;;;;5003759;28;20137;-77
2023/07/17 12:46:39;;;;;;;3.58;1.95;;;;;;;;;;5005025;28;20065;-77
2023/07/17 12:49:46;;;;;;;6.32;2.60;;;;;;;;;;4929030;28;20045;-77
2023/07/17 12:52:32;;;;;;;5.03;2.60;;;;;;;;;;5007685;28;20144;-77
2023/07/17 12:55:28;;;;;;;;;;;;;;;;;;;;;
2023/07/17 12:58:51;;;;;;;3.38;2.00;;;;;;;;;;5012599;28;20430;-77
2023/07/17 13:04:57;;;;;;;5.20;2.03;;;;;;;;;;4994878;28;20129;-77
2023/07/17 13:07:24;;;;;;;4.97;1.90;;;;;;;;;;4996910;28;20601;-77
2023/07/17 13:09:53;;;;;;;4.38;2.15;;;;;;;;;;5016558;28;20585;-77
2023/07/17 13:12:36;;;;;;;4.00;2.00;;;;;;;;;;5021406;28;20049;-83
2023/07/17 13:15:28;;;;;;;2.85;2.00;;;;;;;;;;5021874;28;20033;-82
2023/07/17 13:17:54;;;;;;;4.85;2.47;;;;;;;;;;5028193;28;20037;-83
2023/07/17 13:20:31;;;;;;;;;;;;;;;;;;;;;
2023/07/17 13:23:25;;;;;;;3.65;1.83;;;;;;;;;;5028117;28;20033;-78
2023/07/17 13:28:48;;;;;;;2.15;1.65;;;;;;;;;;5023757;28;20516;-78
2023/07/17 13:34:37;;;;;;;4.30;1.92;;;;;;;;;;4984893;28;20108;-78
2023/07/17 13:37:14;;;;;;;4.13;1.90;;;;;;;;;;5002133;28;20049;-78
2023/07/17 13:39:46;;;;;;;3.72;1.80;;;;;;;;;;5021642;28;20068;-78
2023/07/17 13:42:42;;;;;;;2.88;2.10;;;;;;;;;;5011540;28;20057;-78
2023/07/17 13:45:21;;;;;;;4.55;1.98;;;;;;;;;;5021027;28;20060;-78
2023/07/17 13:48:08;;;;;;;6.00;1.88;;;;;;;;;;4995175;28;20049;-78
2023/07/17 13:51:15;;;;;;;3.45;2.20;;;;;;;;;;5014259;28;20107;-78
2023/07/17 13:54:11;;;;;;;4.15;2.10;;;;;;;;;;5024898;28;20060;-78
2023/07/17 13:56:42;;;;;;;9.23;2.60;;;;;;;;;;5021996;28;20041;-78
2023/07/17 14:02:42;;;;;;;5.65;2.17;;;;;;;;;;5020072;28;20468;-78
2023/07/17 14:06:08;;;;;;;7.00;2.50;;;;;;;;;;5020956;28;20120;-78
2023/07/17 14:12:46;;;;;;;4.20;2.20;;;;;;;;;;4941309;28;20116;-78
2023/07/17 14:15:34;;;;;;;;;;;;;;;;;;;;;
2023/07/17 14:18:01;;;;;;;3.65;1.85;;;;;;;;;;4981462;28;20761;-78
2023/07/17 14:20:57;;;;;;;3.15;1.98;;;;;;;;;;4975743;28;20053;-78
2023/07/17 14:23:54;;;;;;;5.57;2.17;;;;;;;;;;5004010;28;20688;-78
2023/07/17 14:29:47;;;;;;;2.75;2.08;;;;;;;;;;5023541;28;20107;-78
2023/07/17 14:32:33;;;;;;;2.55;1.90;;;;;;;;;;5020922;28;20045;-78
2023/07/17 14:35:39;;;;;;;4.80;2.03;;;;;;;;;;4970024;28;20058;-78
2023/07/17 14:38:38;;;;;;;;;;;;;;;;;;;;;
2023/07/17 14:44:29;;;;;;;2.80;1.77;;;;;;;;;;4982684;28;20049;-78
2023/07/17 14:47:45;;;;;;;;;;;;;;;;;;;;;
2023/07/17 14:50:12;;;;;;;3.45;1.80;;;;;;;;;;4945350;28;20749;-78
2023/07/17 14:52:38;;;;;;;3.47;1.80;;;;;;;;;;4993537;28;20116;-78
2023/07/17 14:55:13;;;;;;;4.78;1.70;;;;;;;;;;5000412;28;20041;-78
2023/07/17 14:58:16;;;;;;;3.28;1.70;;;;;;;;;;5004214;28;20837;-78
2023/07/17 15:00:44;;;;;;;3.57;1.60;;;;;;;;;;5011753;28;20693;-78
2023/07/17 15:03:12;;;;;;;2.53;1.60;;;;;;;;;;5023833;28;20329;-78
2023/07/17 15:05:42;;;;;;;2.38;1.80;;;;;;;;;;5033667;28;20049;-78
2023/07/17 15:08:08;;;;;;;5.45;1.40;;;;;;;;;;5047587;28;20049;-78
2023/07/17 15:11:13;;;;;;;3.00;1.60;;;;;;;;;;5044838;28;20037;-78
2023/07/17 15:13:48;;;;;;;2.95;1.85;;;;;;;;;;5051620;28;20045;-79
2023/07/17 15:16:17;;;;;;;4.13;1.90;;;;;;;;;;5039540;28;20047;-78
2023/07/17 15:18:53;;;;;;;3.35;1.83;;;;;;;;;;5048093;28;20161;-78
2023/07/17 15:21:25;;;;;;;3.65;1.77;;;;;;;;;;5029000;28;20075;-78
2023/07/17 15:24:13;;;;;;;2.60;1.70;;;;;;;;;;5042049;28;20041;-78
2023/07/17 15:26:39;;;;;;;4.93;1.75;;;;;;;;;;5039339;28;20087;-78
2023/07/17 15:29:29;;;;;;;4.78;1.63;;;;;;;;;;5025389;28;20090;-78
2023/07/17 15:42:05;;;;;;;5.50;2.00;;;;;;;;;;5033720;28;20106;-78
2023/07/17 15:59:32;;;;;;;4.93;3.15;;;;;;;;;;4996711;28;20049;-78
2023/07/17 16:02:16;;;;;;;4.20;1.35;;;;;;;;;;4971110;28;20063;-78
2023/07/17 16:05:43;;;;;;;;;;;;;;;;;;;;;
2023/07/17 16:08:56;;;;;;;4.45;1.27;;;;;;;;;;4885667;29;20044;-78
2023/07/17 16:35:07;;;;;;;5.53;1.20;;;;;;;;;;5002649;28;20080;-78
2023/07/17 16:37:54;;;;;;;5.95;1.50;;;;;;;;;;4954860;28;20051;-78
2023/07/17 16:41:13;;;;;;;;;;;;;;;;;;;;;
2023/07/17 16:44:19;;;;;;;1.85;1.00;;;;;;;;;;4937822;28;20052;-78
2023/07/17 16:47:24;;;;;;;5.38;1.45;;;;;;;;;;4952486;28;20077;-78
2023/07/17 17:06:08;;;;;;;5.45;1.38;;;;;;;;;;4987380;28;19940;-78
2023/07/17 17:08:43;;;;;;;3.83;1.75;;;;;;;;;;4990423;28;20053;-78
2023/07/17 17:11:22;;;;;;;2.50;1.20;;;;;;;;;;4992252;28;20042;-78
2023/07/17 17:17:15;;;;;;;3.00;1.33;;;;;;;;;;4994962;28;20560;-79
2023/07/17 17:30:38;;;;;;;4.40;1.42;;;;;;;;;;4935649;28;20508;-78
2023/07/17 17:33:13;;;;;;;3.10;1.27;;;;;;;;;;4976346;28;20081;-78
2023/07/17 17:35:46;;;;;;;5.43;1.40;;;;;;;;;;5026691;28;20021;-78
2023/07/17 17:42:34;;;;;;;4.25;1.10;;;;;;;;;;5015957;28;20262;-78
2023/07/17 17:45:14;;;;;;;;;;;;;;;;;;;;;
2023/07/17 17:47:52;;;;;;;2.13;1.10;;;;;;;;;;5025986;28;20409;-78
2023/07/17 17:50:29;;;;;;;2.85;1.20;;;;;;;;;;5025715;28;20115;-78
2023/07/17 17:52:54;;;;;;;5.80;1.15;;;;;;;;;;5041322;28;20117;-78
2023/07/17 17:55:20;;;;;;;2.22;1.20;;;;;;;;;;5061492;28;20757;-78
2023/07/17 17:57:55;;;;;;;3.70;1.25;;;;;;;;;;5056137;28;20051;-78
2023/07/17 18:00:21;;;;;;;3.30;1.20;;;;;;;;;;5064647;28;20063;-78
2023/07/17 18:02:46;;;;;;;3.20;1.50;;;;;;;;;;5057541;28;20544;-78
2023/07/17 18:05:12;;;;;;;2.50;1.15;;;;;;;;;;5049270;28;20045;-78
2023/07/17 18:08:00;;;;;;;6.57;1.00;;;;;;;;;;5063533;28;20130;-78
2023/07/17 18:14:15;;;;;;;2.10;1.10;;;;;;;;;;4983594;28;20046;-78
2023/07/17 18:16:41;;;;;;;2.63;1.13;;;;;;;;;;5035882;28;20060;-78
2023/07/17 18:19:45;;;;;;;2.03;1.17;;;;;;;;;;4976376;28;20053;-78
2023/07/17 18:26:34;;;;;;;2.30;1.30;;;;;;;;;;4977765;28;20045;-78
2023/07/17 18:29:49;;;;;;;2.05;0.80;;;;;;;;;;4995262;28;20038;-78
2023/07/17 18:32:30;;;;;;;2.90;0.90;;;;;;;;;;5052195;28;20068;-78
2023/07/17 18:34:56;;;;;;;3.95;1.45;;;;;;;;;;5064129;28;20041;-78
2023/07/17 18:37:48;;;;;;;2.72;1.20;;;;;;;;;;5032397;28;20043;-79
2023/07/17 18:40:27;;;;;;;2.75;0.93;;;;;;;;;;5056637;28;20102;-78
2023/07/17 18:46:28;;;;;;;2.47;1.15;;;;;;;;;;5013374;28;20087;-78
2023/07/17 18:48:54;;;;;;;2.55;1.20;;;;;;;;;;5025992;28;20045;-78
2023/07/17 18:51:20;;;;;;;2.28;1.00;;;;;;;;;;5040922;28;20057;-78
2023/07/17 18:53:46;;;;;;;2.47;1.08;;;;;;;;;;5022095;28;20050;-79
2023/07/17 18:56:12;;;;;;;3.92;1.10;;;;;;;;;;5035527;28;20040;-79
2023/07/17 18:58:38;;;;;;;3.40;1.05;;;;;;;;;;5065539;28;20049;-79
2023/07/17 19:01:03;;;;;;;2.60;1.10;;;;;;;;;;5065027;28;20028;-79
2023/07/17 19:03:29;;;;;;;2.45;1.00;;;;;;;;;;5064565;28;20046;-79
2023/07/17 19:06:01;;;;;;;2.47;0.93;;;;;;;;;;5065013;28;20122;-79
2023/07/17 19:08:39;;;;;;;2.28;1.30;;;;;;;;;;5063704;28;20024;-79
2023/07/17 19:11:21;;;;;;;3.97;1.20;;;;;;;;;;5064086;28;20067;-79
2023/07/17 19:13:48;;;;;;;;;;;;;;;;;;5064527;28;20131;-79
2023/07/17 19:16:14;;;;;;;4.78;1.10;;;;;;;;;;5065747;28;20001;-79
2023/07/17 19:18:40;;;;;;;2.88;1.30;;;;;;;;;;5066029;28;20040;-79
2023/07/17 19:21:09;;;;;;;3.35;1.20;;;;;;;;;;5066343;28;20048;-79
2023/07/17 19:23:36;;;;;;;1.95;1.10;;;;;;;;;;5064994;28;20035;-79
2023/07/17 19:26:02;;;;;;;2.58;1.10;;;;;;;;;;5067485;28;20051;-79
2023/07/17 19:28:28;;;;;;;2.33;0.98;;;;;;;;;;5050808;28;20441;-79
2023/07/17 19:30:55;;;;;;;2.53;0.93;;;;;;;;;;5056421;28;20057;-79
2023/07/17 19:33:23;;;;;;;3.13;0.90;;;;;;;;;;5064203;28;20421;-79
2023/07/17 19:35:50;;;;;;;2.03;1.00;;;;;;;;;;5065251;28;20043;-79
2023/07/17 19:38:15;;;;;;;2.05;1.10;;;;;;;;;;5062195;28;20020;-79
2023/07/17 19:40:41;;;;;;;5.03;1.08;;;;;;;;;;5058144;28;20048;-79
2023/07/17 19:43:26;;;;;;;6.20;1.30;;;;;;;;;;5061528;28;20041;-81
2023/07/17 19:45:53;;;;;;;3.28;1.10;;;;;;;;;;5065774;28;20044;-79